createdAt,value
2022-11-21T00:00:49.653Z,27.43
2022-11-21T00:03:17.792Z,27.10
2022-11-21T00:05:47.826Z,26.13
2022-11-21T00:08:17.899Z,29.43
2022-11-21T00:10:47.585Z,27.10
2022-11-21T00:13:17.743Z,27.97
2022-11-21T00:15:46.044Z,24.57
2022-11-21T00:18:14.628Z,26.00
2022-11-21T00:20:43.288Z,25.67
2022-11-21T00:23:11.825Z,23.57
2022-11-21T00:25:40.186Z,23.97
2022-11-21T00:28:09.551Z,24.50
2022-11-21T00:30:37.642Z,25.03
2022-11-21T00:33:05.716Z,26.80
2022-11-21T00:35:33.697Z,25.70
2022-11-21T00:38:01.780Z,26.70
2022-11-21T00:40:29.799Z,27.93
2022-11-21T00:42:57.865Z,26.93
2022-11-21T00:45:27.245Z,25.50
2022-11-21T00:47:55.309Z,26.50
2022-11-21T00:50:23.303Z,27.27
2022-11-21T00:52:55.255Z,26.10
2022-11-21T00:55:23.316Z,26.57
2022-11-21T00:57:51.345Z,25.83
2022-11-21T01:00:20.042Z,24.30
2022-11-21T01:02:49.426Z,25.73
2022-11-21T01:05:17.503Z,24.53
2022-11-21T01:07:45.510Z,25.37
2022-11-21T01:10:13.542Z,24.53
2022-11-21T01:12:41.547Z,25.17
2022-11-21T01:15:10.733Z,25.23
2022-11-21T01:25:21.281Z,24.57
2022-11-21T01:27:49.283Z,24.43
2022-11-21T01:30:17.444Z,26.30
2022-11-21T01:32:49.458Z,26.80
2022-11-21T01:35:17.560Z,26.23
2022-11-21T01:37:48.513Z,28.23
2022-11-21T01:40:17.113Z,26.23
2022-11-21T01:42:53.348Z,27.50
2022-11-21T01:45:55.013Z,26.23
2022-11-21T01:48:27.210Z,28.17
2022-11-21T01:50:56.166Z,26.27
2022-11-21T01:53:24.781Z,25.03
2022-11-21T01:55:53.746Z,24.40
2022-11-21T01:58:24.018Z,27.00
2022-11-21T02:00:52.112Z,25.40
2022-11-21T02:03:23.337Z,26.60
2022-11-21T02:05:53.281Z,27.07
2022-11-21T02:08:22.717Z,26.63
2022-11-21T02:10:57.645Z,26.17
2022-11-21T02:13:27.071Z,25.77
2022-11-21T02:15:55.357Z,27.30
2022-11-21T02:18:23.384Z,27.17
2022-11-21T02:20:58.730Z,28.37
2022-11-21T02:23:33.168Z,25.93
2022-11-21T02:26:02.585Z,25.17
2022-11-21T02:28:31.628Z,21.63
2022-11-21T02:30:59.635Z,19.97
2022-11-21T02:33:27.650Z,25.13
2022-11-21T02:36:00.037Z,21.87
2022-11-21T02:38:32.635Z,21.57
2022-11-21T02:41:10.301Z,23.47
2022-11-21T02:43:43.591Z,22.13
2022-11-21T02:46:11.760Z,24.00
2022-11-21T02:48:40.628Z,22.23
2022-11-21T02:51:08.866Z,21.90
2022-11-21T02:53:36.954Z,22.60
2022-11-21T02:56:06.558Z,22.60
2022-11-21T02:58:34.782Z,24.43
2022-11-21T03:06:33.512Z,24.73
2022-11-21T03:09:01.609Z,24.30
2022-11-21T03:24:05.649Z,23.13
2022-11-21T03:26:35.097Z,23.90
2022-11-21T03:29:03.251Z,23.90
2022-11-21T03:31:31.319Z,24.03
2022-11-21T03:33:59.353Z,22.67
2022-11-21T03:36:27.426Z,22.37
2022-11-21T03:38:56.280Z,21.73
2022-11-21T03:41:30.668Z,21.40
2022-11-21T03:44:01.379Z,22.47
2022-11-21T03:46:30.031Z,19.07
2022-11-21T03:48:58.144Z,19.73
2022-11-21T03:51:26.650Z,20.47
2022-11-21T03:53:55.144Z,22.10
2022-11-21T03:56:24.156Z,19.77
2022-11-21T03:58:52.338Z,20.23
2022-11-21T04:01:22.247Z,22.07
2022-11-21T04:03:50.358Z,19.93
2022-11-21T04:06:20.910Z,18.00
2022-11-21T04:08:49.386Z,17.90
2022-11-21T04:11:17.739Z,19.87
2022-11-21T04:13:45.849Z,19.87
2022-11-21T04:16:13.950Z,18.87
2022-11-21T04:18:43.351Z,16.10
2022-11-21T04:21:11.423Z,16.87
2022-11-21T04:23:39.565Z,13.77
2022-11-21T04:26:07.637Z,14.57
2022-11-21T04:28:35.675Z,14.60
2022-11-21T04:31:09.782Z,16.67
2022-11-21T04:33:38.776Z,13.80
2022-11-21T04:36:09.244Z,15.03
2022-11-21T04:38:37.625Z,16.30
2022-11-21T04:41:05.816Z,15.43
2022-11-21T04:43:33.873Z,16.90
2022-11-21T04:46:01.913Z,16.27
2022-11-21T04:48:30.015Z,19.10
2022-11-21T04:50:58.082Z,18.50
2022-11-21T04:53:27.599Z,20.20
2022-11-21T04:55:55.683Z,16.37
2022-11-21T04:58:23.802Z,17.17
2022-11-21T05:00:51.901Z,18.73
2022-11-21T05:03:20.063Z,17.60
2022-11-21T05:05:48.402Z,17.20
2022-11-21T05:08:16.457Z,16.53
2022-11-21T05:11:03.753Z,16.13
2022-11-21T05:13:31.903Z,17.10
2022-11-21T05:16:00.065Z,18.20
2022-11-21T05:18:28.142Z,17.50
2022-11-21T05:20:56.211Z,18.43
2022-11-21T05:23:24.540Z,19.87
2022-11-21T05:25:54.020Z,18.33
2022-11-21T05:28:22.091Z,18.30
2022-11-21T05:30:50.153Z,19.87
2022-11-21T05:33:18.393Z,20.77
2022-11-21T05:35:46.465Z,19.73
2022-11-21T05:38:14.712Z,19.83
2022-11-21T05:40:42.719Z,21.50
2022-11-21T05:43:30.845Z,18.40
2022-11-21T05:45:58.934Z,18.17
2022-11-21T05:48:27.045Z,20.20
2022-11-21T05:50:55.165Z,20.13
2022-11-21T05:53:23.364Z,20.33
2022-11-21T05:55:51.416Z,20.50
2022-11-21T05:58:20.899Z,20.53
2022-11-21T06:00:49.094Z,21.63
2022-11-21T06:03:28.511Z,20.10
2022-11-21T06:06:04.759Z,21.63
2022-11-21T06:08:34.784Z,21.43
2022-11-21T06:11:03.473Z,20.60
2022-11-21T06:13:33.849Z,21.23
2022-11-21T06:16:04.177Z,20.60
2022-11-21T06:18:34.131Z,21.60
2022-11-21T06:21:02.954Z,20.33
2022-11-21T06:23:31.117Z,20.73
2022-11-21T06:26:00.220Z,20.03
2022-11-21T06:28:29.080Z,20.10
2022-11-21T06:30:58.730Z,18.80
2022-11-21T06:33:26.751Z,18.20
2022-11-21T06:35:55.588Z,17.87
2022-11-21T06:38:23.691Z,17.50
2022-11-21T06:40:51.777Z,19.50
2022-11-21T06:43:19.857Z,16.60
2022-11-21T06:45:47.946Z,17.70
2022-11-21T06:48:17.398Z,18.07
2022-11-21T06:50:45.492Z,16.53
2022-11-21T06:53:13.521Z,17.13
2022-11-21T06:55:41.599Z,16.90
2022-11-21T06:58:09.751Z,16.97
2022-11-21T07:00:37.857Z,17.03
2022-11-21T07:03:05.936Z,16.80
2022-11-21T07:05:36.937Z,17.47
2022-11-21T07:08:10.490Z,17.10
2022-11-21T07:10:57.264Z,17.53
2022-11-21T07:13:29.349Z,17.43
2022-11-21T07:16:02.575Z,19.70
2022-11-21T07:18:30.786Z,18.63
2022-11-21T07:21:01.279Z,18.47
2022-11-21T07:23:29.893Z,19.10
2022-11-21T07:26:01.791Z,18.50
2022-11-21T07:28:30.029Z,17.57
2022-11-21T07:30:58.208Z,19.10
2022-11-21T07:33:26.719Z,18.17
2022-11-21T07:35:57.319Z,16.77
2022-11-21T07:38:27.274Z,17.40
2022-11-21T07:40:57.694Z,18.70
2022-11-21T07:43:25.764Z,16.90
2022-11-21T07:45:53.799Z,18.33
2022-11-21T07:48:21.861Z,17.97
2022-11-21T07:50:49.952Z,17.27
2022-11-21T07:53:18.020Z,18.27
2022-11-21T07:55:47.421Z,18.07
2022-11-21T07:58:17.355Z,18.07
2022-11-21T08:00:45.641Z,18.67
2022-11-21T08:03:14.505Z,19.13
2022-11-21T08:05:43.847Z,17.80
2022-11-21T08:08:13.264Z,19.73
2022-11-21T08:10:43.642Z,19.23
2022-11-21T08:13:13.726Z,18.40
2022-11-21T08:15:42.135Z,18.27
2022-11-21T08:18:11.268Z,18.27
2022-11-21T08:20:39.747Z,19.33
2022-11-21T08:23:08.205Z,18.67
2022-11-21T08:25:37.708Z,19.00
2022-11-21T08:28:06.695Z,16.83
2022-11-21T08:30:37.323Z,19.70
2022-11-21T08:33:06.107Z,19.37
2022-11-21T08:35:36.402Z,19.77
2022-11-21T08:38:04.508Z,19.40
2022-11-21T08:40:33.745Z,19.30
2022-11-21T08:43:03.577Z,21.03
2022-11-21T08:45:32.212Z,17.87
2022-11-21T08:48:02.092Z,18.10
2022-11-21T08:50:31.992Z,19.37
2022-11-21T08:53:02.317Z,19.10
2022-11-21T08:55:30.863Z,18.80
2022-11-21T08:57:58.947Z,18.70
2022-11-21T09:00:27.487Z,18.97
2022-11-21T09:02:55.674Z,20.13
2022-11-21T09:05:25.062Z,20.03
2022-11-21T09:07:58.313Z,19.30
2022-11-21T09:10:26.850Z,18.33
2022-11-21T09:12:54.974Z,18.27
2022-11-21T09:15:40.286Z,18.87
2022-11-21T09:18:08.642Z,19.73
2022-11-21T09:20:42.985Z,20.37
2022-11-21T09:23:13.292Z,19.97
2022-11-21T09:25:41.768Z,17.97
2022-11-21T09:28:11.504Z,17.20
2022-11-21T09:30:39.864Z,17.97
2022-11-21T09:33:09.512Z,17.87
2022-11-21T09:35:37.579Z,17.57
2022-11-21T09:38:07.269Z,17.47
2022-11-21T09:40:36.374Z,18.33
2022-11-21T09:43:32.456Z,17.00
2022-11-21T09:46:06.989Z,16.80
2022-11-21T09:48:40.800Z,17.43
2022-11-21T09:51:14.612Z,15.93
2022-11-21T09:53:54.111Z,16.93
2022-11-21T09:56:24.446Z,16.40
2022-11-21T09:59:17.660Z,15.40
2022-11-21T10:01:47.408Z,15.67
2022-11-21T10:04:15.840Z,16.60
2022-11-21T10:06:50.923Z,16.17
2022-11-21T10:09:28.220Z,15.60
2022-11-21T10:12:20.436Z,15.67
2022-11-21T10:15:01.740Z,14.13
2022-11-21T10:17:40.873Z,14.50
2022-11-21T10:20:31.333Z,13.57
2022-11-21T10:23:14.252Z,13.40
2022-11-21T10:25:52.343Z,14.57
2022-11-21T10:32:05.979Z,14.73
2022-11-21T10:34:38.472Z,15.23
2022-11-21T10:37:27.180Z,15.50
2022-11-21T10:39:57.564Z,17.20
2022-11-21T10:42:36.955Z,15.60
2022-11-21T10:45:17.158Z,15.83
2022-11-21T10:47:46.922Z,15.40
2022-11-21T10:50:29.662Z,14.47
2022-11-21T10:53:27.624Z,14.20
2022-11-21T10:56:03.560Z,14.17
2022-11-21T10:58:41.155Z,13.73
2022-11-21T11:01:20.509Z,14.40
2022-11-21T11:04:06.978Z,15.20
2022-11-21T11:06:37.449Z,13.10
2022-11-21T11:09:07.154Z,15.03
2022-11-21T11:11:35.575Z,14.60
2022-11-21T11:14:07.019Z,14.97
2022-11-21T11:16:41.626Z,14.07
2022-11-21T11:19:25.798Z,14.07
2022-11-21T11:21:59.852Z,13.93
2022-11-21T11:24:28.355Z,13.70
2022-11-21T11:27:01.804Z,13.17
2022-11-21T11:29:32.574Z,13.67
2022-11-21T11:32:04.824Z,12.90
2022-11-21T11:34:40.593Z,13.20
2022-11-21T11:37:14.351Z,14.03
2022-11-21T11:39:52.347Z,11.87
2022-11-21T11:43:01.258Z,12.40
2022-11-21T11:46:15.035Z,12.20
2022-11-21T11:49:11.385Z,12.50
2022-11-21T11:51:38.335Z,11.53
2022-11-21T11:54:12.279Z,12.43
2022-11-21T11:56:40.903Z,11.87
2022-11-21T11:59:15.558Z,11.13
2022-11-21T12:01:51.444Z,12.00
2022-11-21T12:04:21.886Z,11.00
2022-11-21T12:09:52.230Z,10.77
2022-11-21T12:12:28.274Z,10.60
2022-11-21T12:15:28.542Z,10.63
2022-11-21T12:18:17.336Z,10.77
2022-11-21T12:20:54.210Z,9.67
2022-11-21T12:23:23.964Z,10.17
2022-11-21T12:26:06.223Z,9.63
2022-11-21T12:28:43.865Z,9.40
2022-11-21T12:31:19.545Z,9.47
2022-11-21T12:34:05.047Z,7.17
2022-11-21T12:36:42.332Z,6.07
2022-11-21T12:39:45.157Z,6.47
2022-11-21T12:42:40.643Z,6.03
2022-11-21T12:45:27.386Z,6.30
2022-11-21T12:48:28.038Z,7.27
2022-11-21T12:51:27.687Z,6.90
2022-11-21T12:54:19.395Z,6.00
2022-11-21T12:56:56.234Z,5.47
2022-11-21T12:59:26.634Z,5.23
2022-11-21T13:02:05.445Z,6.20
2022-11-21T13:04:39.609Z,5.57
2022-11-21T13:07:09.687Z,6.70
2022-11-21T13:09:42.877Z,6.47
2022-11-21T13:12:17.174Z,6.20
2022-11-21T13:14:48.882Z,6.43
2022-11-21T13:17:35.768Z,6.77
2022-11-21T13:20:08.004Z,5.97
2022-11-21T13:23:00.519Z,5.87
2022-11-21T13:25:47.707Z,6.87
2022-11-21T13:28:47.956Z,7.63
2022-11-21T13:31:32.716Z,6.00
2022-11-21T13:34:01.648Z,5.30
2022-11-21T13:36:41.958Z,5.60
2022-11-21T13:39:38.951Z,5.20
2022-11-21T13:42:32.308Z,5.33
2022-11-21T13:45:21.828Z,4.70
2022-11-21T13:48:34.641Z,5.27
2022-11-21T13:51:35.819Z,4.20
2022-11-21T13:54:47.179Z,5.10
2022-11-21T13:57:43.484Z,4.50
2022-11-21T14:00:31.391Z,5.73
2022-11-21T14:03:30.514Z,4.43
2022-11-21T14:06:14.599Z,4.27
2022-11-21T14:08:43.828Z,4.83
2022-11-21T14:11:23.462Z,5.63
2022-11-21T14:13:56.015Z,5.23
2022-11-21T14:16:32.558Z,5.00
2022-11-21T14:19:00.963Z,5.60
2022-11-21T14:21:31.308Z,4.53
2022-11-21T14:24:04.352Z,4.90
2022-11-21T14:26:34.998Z,4.30
2022-11-21T14:32:01.725Z,4.63
2022-11-21T14:34:31.775Z,4.30
2022-11-21T14:37:01.996Z,4.80
2022-11-21T14:39:39.736Z,5.70
2022-11-21T14:42:15.105Z,4.93
2022-11-21T14:44:43.525Z,4.10
2022-11-21T14:47:23.435Z,5.00
2022-11-21T14:49:54.920Z,5.20
2022-11-21T14:52:27.622Z,5.13
2022-11-21T14:57:47.016Z,5.53
2022-11-21T15:00:43.786Z,5.03
2022-11-21T15:03:20.715Z,5.30
2022-11-21T15:06:08.327Z,5.17
2022-11-21T15:11:33.450Z,4.53
2022-11-21T15:14:15.409Z,4.73
2022-11-21T15:16:44.672Z,5.50
2022-11-21T15:19:23.764Z,5.40
2022-11-21T15:21:53.861Z,4.87
2022-11-21T15:24:36.300Z,5.10
2022-11-21T15:27:29.995Z,4.73
2022-11-21T15:30:27.994Z,5.77
2022-11-21T15:33:04.218Z,5.70
2022-11-21T15:35:51.826Z,5.30
2022-11-21T15:38:33.054Z,4.10
2022-11-21T15:41:26.127Z,3.80
2022-11-21T15:43:55.763Z,3.47
2022-11-21T15:46:25.420Z,3.90
2022-11-21T15:48:54.975Z,3.03
2022-11-21T15:51:51.474Z,3.23
2022-11-21T15:54:16.026Z,3.50
2022-11-21T15:56:44.193Z,3.10
2022-11-21T15:59:12.254Z,2.93
2022-11-21T16:01:40.809Z,2.70
2022-11-21T16:04:11.592Z,2.80
2022-11-21T16:06:41.050Z,2.97
2022-11-21T16:09:09.230Z,2.90
2022-11-21T16:11:40.507Z,3.07
2022-11-21T16:14:09.939Z,2.50
2022-11-21T16:16:43.213Z,3.20
2022-11-21T16:19:12.552Z,2.30
2022-11-21T16:21:42.586Z,2.07
2022-11-21T16:24:10.647Z,2.50
2022-11-21T16:26:38.707Z,2.30
2022-11-21T16:29:06.913Z,3.03
2022-11-21T16:31:35.623Z,2.17
2022-11-21T16:34:03.786Z,2.67
2022-11-21T16:36:33.385Z,2.30
2022-11-21T16:39:09.037Z,2.60
2022-11-21T16:41:41.097Z,2.20
2022-11-21T16:44:14.316Z,2.83
2022-11-21T16:46:43.882Z,2.87
2022-11-21T16:49:12.221Z,2.50
2022-11-21T16:51:40.296Z,2.47
2022-11-21T16:54:09.928Z,3.10
2022-11-21T16:56:38.205Z,2.13
2022-11-21T16:59:06.374Z,2.00
2022-11-21T17:01:34.772Z,1.80
2022-11-21T17:04:03.073Z,2.70
2022-11-21T17:06:32.173Z,2.07
2022-11-21T17:09:01.324Z,2.00
2022-11-21T17:11:32.295Z,1.60
2022-11-21T17:14:02.970Z,2.00
2022-11-21T17:16:33.445Z,2.33
2022-11-21T17:19:04.710Z,2.17
2022-11-21T17:21:33.660Z,1.77
2022-11-21T17:24:01.689Z,2.03
2022-11-21T17:26:31.588Z,1.90
2022-11-21T17:29:03.440Z,2.40
2022-11-21T17:31:31.968Z,2.00
2022-11-21T17:34:01.031Z,1.77
2022-11-21T17:36:30.947Z,2.07
2022-11-21T17:38:59.112Z,2.17
2022-11-21T17:41:28.053Z,2.23
2022-11-21T17:43:58.711Z,1.80
2022-11-21T17:46:28.492Z,1.40
2022-11-21T17:48:59.002Z,1.80
2022-11-21T17:51:29.417Z,2.10
2022-11-21T17:53:58.124Z,2.10
2022-11-21T17:56:28.501Z,1.97
2022-11-21T17:58:58.001Z,1.80
2022-11-21T18:01:26.734Z,3.20
2022-11-21T18:03:57.510Z,2.10
2022-11-21T18:06:26.602Z,2.00
2022-11-21T18:08:56.186Z,1.87
2022-11-21T18:11:24.281Z,2.13
2022-11-21T18:13:52.394Z,2.10
2022-11-21T18:16:24.650Z,2.50
2022-11-21T18:18:53.094Z,2.63
2022-11-21T18:21:23.876Z,2.27
2022-11-21T18:23:53.721Z,2.30
2022-11-21T18:26:25.185Z,2.00
2022-11-21T18:29:13.403Z,2.40
2022-11-21T18:31:45.506Z,1.97
2022-11-21T18:34:14.099Z,2.13
2022-11-21T18:36:42.312Z,2.60
2022-11-21T18:39:14.580Z,2.73
2022-11-21T18:41:43.546Z,2.57
2022-11-21T18:44:20.072Z,2.50
2022-11-21T18:46:51.344Z,2.67
2022-11-21T18:49:19.569Z,2.30
2022-11-21T18:51:48.588Z,2.30
2022-11-21T18:54:16.803Z,2.00
2022-11-21T18:56:47.361Z,2.80
2022-11-21T18:59:15.731Z,2.43
2022-11-21T19:01:43.994Z,2.10
2022-11-21T19:04:13.658Z,2.23
2022-11-21T19:06:41.885Z,1.97
2022-11-21T19:09:11.637Z,2.50
2022-11-21T19:11:39.742Z,2.87
2022-11-21T19:14:08.129Z,2.00
2022-11-21T19:16:36.178Z,2.83
2022-11-21T19:21:56.626Z,2.60
2022-11-21T19:24:24.712Z,2.67
2022-11-21T19:26:52.723Z,2.83
2022-11-21T19:29:20.863Z,2.50
2022-11-21T19:31:48.997Z,2.53
2022-11-21T19:34:17.490Z,2.43
2022-11-21T19:36:46.374Z,2.72
2022-11-21T19:39:17.445Z,2.80
2022-11-21T19:41:45.774Z,2.73
2022-11-21T19:44:13.785Z,3.03
2022-11-21T19:46:41.903Z,2.70
2022-11-21T19:49:11.874Z,2.80
2022-11-21T19:51:41.760Z,2.50
2022-11-21T19:54:12.525Z,3.07
2022-11-21T19:56:42.066Z,2.57
2022-11-21T19:59:13.111Z,3.00
2022-11-21T20:01:41.811Z,3.00
2022-11-21T20:04:11.759Z,3.13
2022-11-21T20:06:42.486Z,2.67
2022-11-21T20:09:12.504Z,3.00
2022-11-21T20:11:43.365Z,2.60
2022-11-21T20:14:20.963Z,3.10
2022-11-21T20:16:50.461Z,2.80
2022-11-21T20:19:20.980Z,3.60
2022-11-21T20:21:49.189Z,2.53
2022-11-21T20:24:17.617Z,3.07
2022-11-21T20:26:47.364Z,3.87
2022-11-21T20:29:16.122Z,3.40
2022-11-21T20:31:45.197Z,3.10
2022-11-21T20:34:14.420Z,2.73
2022-11-21T20:36:43.416Z,3.10
2022-11-21T20:39:15.377Z,3.67
2022-11-21T20:41:43.737Z,3.30
2022-11-21T20:47:03.356Z,3.97
2022-11-21T20:49:31.962Z,4.13
2022-11-21T20:54:48.394Z,4.30
2022-11-21T20:57:16.445Z,3.17
2022-11-21T20:59:45.981Z,4.03
2022-11-21T21:02:14.811Z,4.83
2022-11-21T21:04:43.129Z,3.60
2022-11-21T21:07:11.526Z,4.57
2022-11-21T21:09:39.859Z,4.00
2022-11-21T21:12:08.330Z,3.50
2022-11-21T21:14:36.423Z,3.67
2022-11-21T21:17:06.134Z,3.47
2022-11-21T21:19:34.251Z,3.70
2022-11-21T21:22:02.339Z,3.37
2022-11-21T21:24:30.496Z,3.47
2022-11-21T21:26:59.040Z,3.47
2022-11-21T21:29:27.431Z,3.53
2022-11-21T21:31:55.748Z,3.73
2022-11-21T21:34:25.186Z,4.03
2022-11-21T21:36:53.265Z,3.30
2022-11-21T21:39:21.290Z,3.57
2022-11-21T21:41:49.423Z,3.63
2022-11-21T21:44:17.520Z,4.07
2022-11-21T21:46:46.086Z,3.73
2022-11-21T21:49:14.320Z,3.83
2022-11-21T21:51:43.711Z,3.43
2022-11-21T21:54:19.705Z,3.80
2022-11-21T21:56:48.080Z,3.47
2022-11-21T21:59:19.874Z,3.67
2022-11-21T22:01:48.092Z,3.70
2022-11-21T22:04:16.200Z,3.30
2022-11-21T22:06:48.197Z,3.50
2022-11-21T22:09:16.313Z,3.83
2022-11-21T22:11:44.596Z,3.33
2022-11-21T22:14:14.502Z,3.50
2022-11-21T22:16:43.814Z,2.60
2022-11-21T22:19:11.904Z,3.17
2022-11-21T22:21:40.753Z,3.37
2022-11-21T22:24:25.261Z,3.50
2022-11-21T22:26:53.832Z,3.70
2022-11-21T22:29:21.961Z,4.07
2022-11-21T22:31:50.989Z,3.20
2022-11-21T22:34:19.166Z,3.63
2022-11-21T22:36:47.545Z,3.37
2022-11-21T22:39:17.981Z,3.60
2022-11-21T22:41:46.210Z,3.23
2022-11-21T22:44:14.364Z,4.17
2022-11-21T22:46:42.515Z,3.47
2022-11-21T22:49:10.657Z,3.37
2022-11-21T22:51:38.782Z,3.80
2022-11-21T22:54:06.961Z,3.47
2022-11-21T22:56:36.611Z,3.40
2022-11-21T22:59:04.681Z,3.80
2022-11-21T23:01:35.050Z,3.83
2022-11-21T23:04:03.342Z,3.20
2022-11-21T23:06:31.513Z,4.03
2022-11-21T23:08:59.768Z,3.63
2022-11-21T23:11:29.711Z,3.40
2022-11-21T23:13:59.263Z,2.87
2022-11-21T23:16:27.460Z,3.70
2022-11-21T23:18:56.744Z,3.67
2022-11-21T23:21:25.028Z,4.17
2022-11-21T23:23:53.161Z,3.80
2022-11-21T23:26:21.481Z,4.13
2022-11-21T23:32:41.546Z,3.50
2022-11-21T23:35:10.400Z,4.27
2022-11-21T23:37:38.530Z,3.60
2022-11-21T23:40:13.749Z,4.57
2022-11-21T23:42:41.808Z,3.10
2022-11-21T23:45:10.848Z,4.13
2022-11-21T23:47:38.907Z,4.50
2022-11-21T23:50:09.074Z,4.67
2022-11-21T23:52:37.153Z,4.17
2022-11-21T23:55:06.226Z,3.90
2022-11-21T23:57:34.323Z,4.93
